sensor_id;sensor_type;location;lat;lon;timestamp;P1;durP1;ratioP1;P2;durP2;ratioP2
3975;SDS011;2002;48.812;9.180;2022-09-11T00:00:27;0.60;;;0.50;;
3975;SDS011;2002;48.812;9.180;2022-09-11T00:02:53;0.80;;;0.60;;
3975;SDS011;2002;48.812;9.180;2022-09-11T00:05:18;0.70;;;0.60;;
3975;SDS011;2002;48.812;9.180;2022-09-11T00:07:44;0.70;;;0.60;;
3975;SDS011;2002;48.812;9.180;2022-09-11T00:10:11;0.60;;;0.57;;
3975;SDS011;2002;48.812;9.180;2022-09-11T00:12:36;0.90;;;0.70;;
3975;SDS011;2002;48.812;9.180;2022-09-11T00:15:02;1.00;;;0.90;;
3975;SDS011;2002;48.812;9.180;2022-09-11T00:17:28;0.80;;;0.70;;
3975;SDS011;2002;48.812;9.180;2022-09-11T00:19:54;0.60;;;0.53;;
3975;SDS011;2002;48.812;9.180;2022-09-11T00:22:19;0.80;;;0.80;;
3975;SDS011;2002;48.812;9.180;2022-09-11T00:24:45;0.90;;;0.77;;
3975;SDS011;2002;48.812;9.180;2022-09-11T00:27:11;0.70;;;0.50;;
3975;SDS011;2002;48.812;9.180;2022-09-11T00:29:37;0.80;;;0.70;;
3975;SDS011;2002;48.812;9.180;2022-09-11T00:32:02;1.10;;;0.70;;
3975;SDS011;2002;48.812;9.180;2022-09-11T00:34:28;0.80;;;0.60;;
3975;SDS011;2002;48.812;9.180;2022-09-11T00:36:53;0.70;;;0.53;;
3975;SDS011;2002;48.812;9.180;2022-09-11T00:39:19;1.37;;;0.70;;
3975;SDS011;2002;48.812;9.180;2022-09-11T00:41:45;0.90;;;0.70;;
3975;SDS011;2002;48.812;9.180;2022-09-11T00:49:17;1.20;;;0.73;;
3975;SDS011;2002;48.812;9.180;2022-09-11T00:51:58;1.10;;;0.50;;
3975;SDS011;2002;48.812;9.180;2022-09-11T00:54:33;0.60;;;0.60;;
3975;SDS011;2002;48.812;9.180;2022-09-11T00:57:03;0.70;;;0.57;;
3975;SDS011;2002;48.812;9.180;2022-09-11T00:59:31;0.60;;;0.50;;
3975;SDS011;2002;48.812;9.180;2022-09-11T01:01:58;0.70;;;0.53;;
3975;SDS011;2002;48.812;9.180;2022-09-11T01:04:24;0.70;;;0.60;;
3975;SDS011;2002;48.812;9.180;2022-09-11T01:06:53;0.80;;;0.60;;
3975;SDS011;2002;48.812;9.180;2022-09-11T01:09:21;0.60;;;0.50;;
3975;SDS011;2002;48.812;9.180;2022-09-11T01:14:44;0.80;;;0.80;;
3975;SDS011;2002;48.812;9.180;2022-09-11T01:23:07;1.00;;;0.60;;
3975;SDS011;2002;48.812;9.180;2022-09-11T01:28:32;0.93;;;0.70;;
3975;SDS011;2002;48.812;9.180;2022-09-11T01:31:05;1.47;;;0.70;;
3975;SDS011;2002;48.812;9.180;2022-09-11T01:33:36;0.70;;;0.60;;
3975;SDS011;2002;48.812;9.180;2022-09-11T01:38:53;0.90;;;0.73;;
3975;SDS011;2002;48.812;9.180;2022-09-11T01:41:26;0.63;;;0.60;;
3975;SDS011;2002;48.812;9.180;2022-09-11T01:46:27;0.80;;;0.60;;
3975;SDS011;2002;48.812;9.180;2022-09-11T01:49:02;0.90;;;0.70;;
3975;SDS011;2002;48.812;9.180;2022-09-11T01:51:35;0.70;;;0.67;;
3975;SDS011;2002;48.812;9.180;2022-09-11T01:54:05;0.73;;;0.60;;
3975;SDS011;2002;48.812;9.180;2022-09-11T01:56:39;0.70;;;0.70;;
3975;SDS011;2002;48.812;9.180;2022-09-11T01:59:09;0.70;;;0.60;;
3975;SDS011;2002;48.812;9.180;2022-09-11T02:01:39;0.60;;;0.53;;
3975;SDS011;2002;48.812;9.180;2022-09-11T02:04:10;0.60;;;0.60;;
3975;SDS011;2002;48.812;9.180;2022-09-11T02:06:43;0.60;;;0.60;;
3975;SDS011;2002;48.812;9.180;2022-09-11T02:09:13;0.80;;;0.63;;
3975;SDS011;2002;48.812;9.180;2022-09-11T02:11:44;1.13;;;0.70;;
3975;SDS011;2002;48.812;9.180;2022-09-11T02:14:26;0.70;;;0.50;;
3975;SDS011;2002;48.812;9.180;2022-09-11T02:16:59;0.67;;;0.67;;
3975;SDS011;2002;48.812;9.180;2022-09-11T02:19:35;0.80;;;0.60;;
3975;SDS011;2002;48.812;9.180;2022-09-11T02:22:04;0.70;;;0.60;;
3975;SDS011;2002;48.812;9.180;2022-09-11T02:24:31;0.70;;;0.60;;
3975;SDS011;2002;48.812;9.180;2022-09-11T02:27:00;1.70;;;1.17;;
3975;SDS011;2002;48.812;9.180;2022-09-11T02:29:27;0.83;;;0.70;;
3975;SDS011;2002;48.812;9.180;2022-09-11T02:31:53;0.90;;;0.70;;
3975;SDS011;2002;48.812;9.180;2022-09-11T02:34:25;1.10;;;0.70;;
3975;SDS011;2002;48.812;9.180;2022-09-11T02:37:01;0.50;;;0.47;;
3975;SDS011;2002;48.812;9.180;2022-09-11T02:45:14;0.90;;;0.63;;
3975;SDS011;2002;48.812;9.180;2022-09-11T02:56:54;0.60;;;0.50;;
3975;SDS011;2002;48.812;9.180;2022-09-11T02:59:48;0.63;;;0.63;;
3975;SDS011;2002;48.812;9.180;2022-09-11T03:02:25;0.73;;;0.73;;
3975;SDS011;2002;48.812;9.180;2022-09-11T03:04:53;0.93;;;0.67;;
3975;SDS011;2002;48.812;9.180;2022-09-11T03:07:20;0.90;;;0.60;;
3975;SDS011;2002;48.812;9.180;2022-09-11T03:09:46;0.70;;;0.57;;
3975;SDS011;2002;48.812;9.180;2022-09-11T03:12:12;1.37;;;0.77;;
3975;SDS011;2002;48.812;9.180;2022-09-11T03:14:37;1.43;;;0.60;;
3975;SDS011;2002;48.812;9.180;2022-09-11T03:17:03;0.60;;;0.50;;
3975;SDS011;2002;48.812;9.180;2022-09-11T03:19:29;1.00;;;0.70;;
3975;SDS011;2002;48.812;9.180;2022-09-11T03:21:55;0.90;;;0.80;;
3975;SDS011;2002;48.812;9.180;2022-09-11T03:24:21;0.83;;;0.80;;
3975;SDS011;2002;48.812;9.180;2022-09-11T03:26:46;0.60;;;0.50;;
3975;SDS011;2002;48.812;9.180;2022-09-11T03:29:12;0.80;;;0.70;;
3975;SDS011;2002;48.812;9.180;2022-09-11T03:31:38;0.70;;;0.70;;
3975;SDS011;2002;48.812;9.180;2022-09-11T03:34:04;1.17;;;0.90;;
3975;SDS011;2002;48.812;9.180;2022-09-11T03:36:30;0.90;;;0.87;;
3975;SDS011;2002;48.812;9.180;2022-09-11T03:38:58;1.23;;;0.80;;
3975;SDS011;2002;48.812;9.180;2022-09-11T03:41:24;0.80;;;0.60;;
3975;SDS011;2002;48.812;9.180;2022-09-11T03:43:50;0.90;;;0.60;;
3975;SDS011;2002;48.812;9.180;2022-09-11T03:46:15;0.60;;;0.60;;
3975;SDS011;2002;48.812;9.180;2022-09-11T03:48:41;0.80;;;0.80;;
3975;SDS011;2002;48.812;9.180;2022-09-11T03:51:10;0.77;;;0.77;;
3975;SDS011;2002;48.812;9.180;2022-09-11T03:53:35;0.80;;;0.57;;
3975;SDS011;2002;48.812;9.180;2022-09-11T03:56:02;0.93;;;0.70;;
3975;SDS011;2002;48.812;9.180;2022-09-11T03:58:28;0.93;;;0.70;;
3975;SDS011;2002;48.812;9.180;2022-09-11T04:00:54;0.70;;;0.70;;
3975;SDS011;2002;48.812;9.180;2022-09-11T04:03:20;0.70;;;0.70;;
3975;SDS011;2002;48.812;9.180;2022-09-11T04:05:55;0.97;;;0.70;;
3975;SDS011;2002;48.812;9.180;2022-09-11T04:08:25;0.80;;;0.57;;
3975;SDS011;2002;48.812;9.180;2022-09-11T04:10:57;0.60;;;0.60;;
3975;SDS011;2002;48.812;9.180;2022-09-11T04:13:30;0.60;;;0.50;;
3975;SDS011;2002;48.812;9.180;2022-09-11T04:15:58;1.07;;;0.60;;
3975;SDS011;2002;48.812;9.180;2022-09-11T04:18:25;1.00;;;0.83;;
3975;SDS011;2002;48.812;9.180;2022-09-11T04:20:50;0.70;;;0.60;;
3975;SDS011;2002;48.812;9.180;2022-09-11T04:23:16;0.70;;;0.60;;
3975;SDS011;2002;48.812;9.180;2022-09-11T04:25:41;1.17;;;1.07;;
3975;SDS011;2002;48.812;9.180;2022-09-11T04:28:07;1.20;;;1.10;;
3975;SDS011;2002;48.812;9.180;2022-09-11T04:30:34;1.00;;;0.90;;
3975;SDS011;2002;48.812;9.180;2022-09-11T04:33:02;0.93;;;0.80;;
3975;SDS011;2002;48.812;9.180;2022-09-11T04:35:29;0.93;;;0.77;;
3975;SDS011;2002;48.812;9.180;2022-09-11T04:38:00;0.87;;;0.83;;
3975;SDS011;2002;48.812;9.180;2022-09-11T04:40:26;0.80;;;0.80;;
3975;SDS011;2002;48.812;9.180;2022-09-11T04:42:51;0.70;;;0.60;;
3975;SDS011;2002;48.812;9.180;2022-09-11T04:45:17;0.70;;;0.67;;
3975;SDS011;2002;48.812;9.180;2022-09-11T04:47:43;1.43;;;0.90;;
3975;SDS011;2002;48.812;9.180;2022-09-11T04:50:08;1.47;;;0.90;;
3975;SDS011;2002;48.812;9.180;2022-09-11T04:52:34;0.80;;;0.50;;
3975;SDS011;2002;48.812;9.180;2022-09-11T04:54:59;1.13;;;0.90;;
3975;SDS011;2002;48.812;9.180;2022-09-11T04:57:27;0.77;;;0.70;;
3975;SDS011;2002;48.812;9.180;2022-09-11T04:59:54;0.70;;;0.70;;
3975;SDS011;2002;48.812;9.180;2022-09-11T05:02:20;0.80;;;0.80;;
3975;SDS011;2002;48.812;9.180;2022-09-11T05:04:46;1.10;;;1.00;;
3975;SDS011;2002;48.812;9.180;2022-09-11T05:07:11;1.07;;;0.97;;
3975;SDS011;2002;48.812;9.180;2022-09-11T05:09:38;0.90;;;0.60;;
3975;SDS011;2002;48.812;9.180;2022-09-11T05:12:04;0.70;;;0.67;;
3975;SDS011;2002;48.812;9.180;2022-09-11T05:14:29;1.00;;;0.80;;
3975;SDS011;2002;48.812;9.180;2022-09-11T05:16:56;0.60;;;0.60;;
3975;SDS011;2002;48.812;9.180;2022-09-11T05:19:22;1.37;;;1.10;;
3975;SDS011;2002;48.812;9.180;2022-09-11T05:21:49;0.80;;;0.73;;
3975;SDS011;2002;48.812;9.180;2022-09-11T05:24:15;0.63;;;0.63;;
3975;SDS011;2002;48.812;9.180;2022-09-11T05:26:40;0.90;;;0.90;;
3975;SDS011;2002;48.812;9.180;2022-09-11T05:29:07;0.90;;;0.90;;
3975;SDS011;2002;48.812;9.180;2022-09-11T05:31:35;0.77;;;0.73;;
3975;SDS011;2002;48.812;9.180;2022-09-11T05:34:01;0.73;;;0.73;;
3975;SDS011;2002;48.812;9.180;2022-09-11T05:36:27;1.13;;;0.80;;
3975;SDS011;2002;48.812;9.180;2022-09-11T05:38:55;0.80;;;0.73;;
3975;SDS011;2002;48.812;9.180;2022-09-11T05:41:21;1.03;;;0.80;;
3975;SDS011;2002;48.812;9.180;2022-09-11T05:43:46;0.70;;;0.70;;
3975;SDS011;2002;48.812;9.180;2022-09-11T05:46:16;0.90;;;0.90;;
3975;SDS011;2002;48.812;9.180;2022-09-11T05:48:43;0.97;;;0.87;;
3975;SDS011;2002;48.812;9.180;2022-09-11T05:51:10;1.20;;;1.00;;
3975;SDS011;2002;48.812;9.180;2022-09-11T05:53:37;0.90;;;0.90;;
3975;SDS011;2002;48.812;9.180;2022-09-11T05:56:13;0.87;;;0.87;;
3975;SDS011;2002;48.812;9.180;2022-09-11T05:58:40;0.80;;;0.80;;
3975;SDS011;2002;48.812;9.180;2022-09-11T06:01:11;1.00;;;0.90;;
3975;SDS011;2002;48.812;9.180;2022-09-11T06:03:38;1.20;;;1.10;;
3975;SDS011;2002;48.812;9.180;2022-09-11T06:06:05;0.87;;;0.87;;
3975;SDS011;2002;48.812;9.180;2022-09-11T06:08:32;1.00;;;0.90;;
3975;SDS011;2002;48.812;9.180;2022-09-11T06:11:02;0.80;;;0.80;;
3975;SDS011;2002;48.812;9.180;2022-09-11T06:13:31;1.10;;;1.00;;
3975;SDS011;2002;48.812;9.180;2022-09-11T06:15:59;0.90;;;0.90;;
3975;SDS011;2002;48.812;9.180;2022-09-11T06:18:26;1.20;;;1.10;;
3975;SDS011;2002;48.812;9.180;2022-09-11T06:21:00;1.23;;;1.13;;
3975;SDS011;2002;48.812;9.180;2022-09-11T06:23:28;1.83;;;1.10;;
3975;SDS011;2002;48.812;9.180;2022-09-11T06:26:00;1.47;;;1.10;;
3975;SDS011;2002;48.812;9.180;2022-09-11T06:28:27;1.00;;;0.90;;
3975;SDS011;2002;48.812;9.180;2022-09-11T06:30:53;1.10;;;0.93;;
3975;SDS011;2002;48.812;9.180;2022-09-11T06:33:18;1.00;;;0.90;;
3975;SDS011;2002;48.812;9.180;2022-09-11T06:35:54;0.97;;;0.97;;
3975;SDS011;2002;48.812;9.180;2022-09-11T06:38:21;1.10;;;1.00;;
3975;SDS011;2002;48.812;9.180;2022-09-11T06:40:47;0.90;;;0.80;;
3975;SDS011;2002;48.812;9.180;2022-09-11T06:43:13;1.10;;;1.10;;
3975;SDS011;2002;48.812;9.180;2022-09-11T06:45:38;1.00;;;0.80;;
3975;SDS011;2002;48.812;9.180;2022-09-11T06:48:05;0.80;;;0.80;;
3975;SDS011;2002;48.812;9.180;2022-09-11T06:50:31;0.97;;;0.90;;
3975;SDS011;2002;48.812;9.180;2022-09-11T06:53:04;1.40;;;1.30;;
3975;SDS011;2002;48.812;9.180;2022-09-11T06:55:30;1.17;;;1.07;;
3975;SDS011;2002;48.812;9.180;2022-09-11T06:57:56;0.90;;;0.90;;
3975;SDS011;2002;48.812;9.180;2022-09-11T07:00:22;1.00;;;0.97;;
3975;SDS011;2002;48.812;9.180;2022-09-11T07:02:47;1.30;;;1.20;;
3975;SDS011;2002;48.812;9.180;2022-09-11T07:05:14;1.37;;;1.00;;
3975;SDS011;2002;48.812;9.180;2022-09-11T07:07:40;1.17;;;1.07;;
3975;SDS011;2002;48.812;9.180;2022-09-11T07:10:06;4.30;;;1.30;;
3975;SDS011;2002;48.812;9.180;2022-09-11T07:12:34;1.20;;;1.10;;
3975;SDS011;2002;48.812;9.180;2022-09-11T07:15:03;0.90;;;0.77;;
3975;SDS011;2002;48.812;9.180;2022-09-11T07:17:30;0.70;;;0.70;;
3975;SDS011;2002;48.812;9.180;2022-09-11T07:19:55;1.43;;;1.03;;
3975;SDS011;2002;48.812;9.180;2022-09-11T07:22:22;1.27;;;1.13;;
3975;SDS011;2002;48.812;9.180;2022-09-11T07:24:47;1.43;;;1.33;;
3975;SDS011;2002;48.812;9.180;2022-09-11T07:27:13;0.90;;;0.90;;
3975;SDS011;2002;48.812;9.180;2022-09-11T07:29:38;1.10;;;1.00;;
3975;SDS011;2002;48.812;9.180;2022-09-11T07:32:04;1.00;;;1.00;;
3975;SDS011;2002;48.812;9.180;2022-09-11T07:34:30;1.47;;;1.20;;
3975;SDS011;2002;48.812;9.180;2022-09-11T07:36:56;1.10;;;1.00;;
3975;SDS011;2002;48.812;9.180;2022-09-11T07:39:21;1.20;;;1.10;;
3975;SDS011;2002;48.812;9.180;2022-09-11T07:41:47;1.13;;;1.03;;
3975;SDS011;2002;48.812;9.180;2022-09-11T07:44:13;1.50;;;1.40;;
3975;SDS011;2002;48.812;9.180;2022-09-11T07:46:39;1.13;;;1.10;;
3975;SDS011;2002;48.812;9.180;2022-09-11T07:49:05;1.57;;;1.47;;
3975;SDS011;2002;48.812;9.180;2022-09-11T07:51:34;1.30;;;1.20;;
3975;SDS011;2002;48.812;9.180;2022-09-11T07:54:01;1.13;;;1.10;;
3975;SDS011;2002;48.812;9.180;2022-09-11T07:56:27;1.80;;;1.20;;
3975;SDS011;2002;48.812;9.180;2022-09-11T07:58:55;1.00;;;1.00;;
3975;SDS011;2002;48.812;9.180;2022-09-11T08:01:25;1.30;;;1.20;;
3975;SDS011;2002;48.812;9.180;2022-09-11T08:03:53;1.40;;;1.13;;
3975;SDS011;2002;48.812;9.180;2022-09-11T08:06:23;1.20;;;1.10;;
3975;SDS011;2002;48.812;9.180;2022-09-11T08:09:02;1.10;;;1.00;;
3975;SDS011;2002;48.812;9.180;2022-09-11T08:11:30;1.50;;;1.20;;
3975;SDS011;2002;48.812;9.180;2022-09-11T08:13:58;1.33;;;1.23;;
3975;SDS011;2002;48.812;9.180;2022-09-11T08:16:24;1.23;;;1.13;;
3975;SDS011;2002;48.812;9.180;2022-09-11T08:18:51;1.77;;;1.20;;
3975;SDS011;2002;48.812;9.180;2022-09-11T08:21:17;1.40;;;1.30;;
3975;SDS011;2002;48.812;9.180;2022-09-11T08:23:44;1.30;;;1.20;;
3975;SDS011;2002;48.812;9.180;2022-09-11T08:26:11;1.30;;;1.17;;
3975;SDS011;2002;48.812;9.180;2022-09-11T08:28:42;1.23;;;1.13;;
3975;SDS011;2002;48.812;9.180;2022-09-11T08:31:09;1.23;;;1.10;;
3975;SDS011;2002;48.812;9.180;2022-09-11T08:33:35;1.40;;;1.30;;
3975;SDS011;2002;48.812;9.180;2022-09-11T08:36:03;1.40;;;1.30;;
3975;SDS011;2002;48.812;9.180;2022-09-11T08:38:30;1.50;;;1.40;;
3975;SDS011;2002;48.812;9.180;2022-09-11T08:40:57;1.60;;;1.50;;
3975;SDS011;2002;48.812;9.180;2022-09-11T08:43:34;1.43;;;1.33;;
3975;SDS011;2002;48.812;9.180;2022-09-11T08:46:06;1.20;;;1.10;;
3975;SDS011;2002;48.812;9.180;2022-09-11T08:51:37;1.50;;;1.40;;
3975;SDS011;2002;48.812;9.180;2022-09-11T08:54:04;1.50;;;1.40;;
3975;SDS011;2002;48.812;9.180;2022-09-11T08:56:30;1.90;;;1.40;;
3975;SDS011;2002;48.812;9.180;2022-09-11T08:59:09;1.10;;;1.00;;
3975;SDS011;2002;48.812;9.180;2022-09-11T09:04:48;1.40;;;1.30;;
3975;SDS011;2002;48.812;9.180;2022-09-11T09:16:08;1.40;;;1.30;;
3975;SDS011;2002;48.812;9.180;2022-09-11T09:19:12;1.67;;;1.43;;
3975;SDS011;2002;48.812;9.180;2022-09-11T09:24:10;1.40;;;1.30;;
3975;SDS011;2002;48.812;9.180;2022-09-11T09:26:47;1.23;;;1.13;;
3975;SDS011;2002;48.812;9.180;2022-09-11T09:29:20;1.60;;;1.30;;
3975;SDS011;2002;48.812;9.180;2022-09-11T09:31:48;1.50;;;1.40;;
3975;SDS011;2002;48.812;9.180;2022-09-11T09:34:18;1.73;;;1.60;;
3975;SDS011;2002;48.812;9.180;2022-09-11T09:36:51;1.30;;;1.20;;
3975;SDS011;2002;48.812;9.180;2022-09-11T09:39:20;1.50;;;1.40;;
3975;SDS011;2002;48.812;9.180;2022-09-11T09:42:10;1.70;;;1.60;;
3975;SDS011;2002;48.812;9.180;2022-09-11T09:47:40;1.73;;;1.63;;
3975;SDS011;2002;48.812;9.180;2022-09-11T09:50:19;1.50;;;1.40;;
3975;SDS011;2002;48.812;9.180;2022-09-11T09:52:48;1.50;;;1.40;;
3975;SDS011;2002;48.812;9.180;2022-09-11T09:55:15;1.20;;;1.10;;
3975;SDS011;2002;48.812;9.180;2022-09-11T09:57:42;1.70;;;1.60;;
3975;SDS011;2002;48.812;9.180;2022-09-11T10:02:42;1.60;;;1.50;;
3975;SDS011;2002;48.812;9.180;2022-09-11T10:05:26;1.80;;;1.70;;
3975;SDS011;2002;48.812;9.180;2022-09-11T10:07:54;1.87;;;1.67;;
3975;SDS011;2002;48.812;9.180;2022-09-11T10:12:49;1.70;;;1.60;;
3975;SDS011;2002;48.812;9.180;2022-09-11T10:15:18;1.60;;;1.50;;
3975;SDS011;2002;48.812;9.180;2022-09-11T10:17:46;1.73;;;1.33;;
3975;SDS011;2002;48.812;9.180;2022-09-11T10:22:38;1.73;;;1.63;;
3975;SDS011;2002;48.812;9.180;2022-09-11T10:25:22;1.80;;;1.70;;
3975;SDS011;2002;48.812;9.180;2022-09-11T10:30:28;1.60;;;1.50;;
3975;SDS011;2002;48.812;9.180;2022-09-11T10:32:55;1.50;;;1.40;;
3975;SDS011;2002;48.812;9.180;2022-09-11T10:35:22;2.10;;;2.00;;
3975;SDS011;2002;48.812;9.180;2022-09-11T10:40:31;2.27;;;2.07;;
3975;SDS011;2002;48.812;9.180;2022-09-11T10:42:57;1.50;;;1.40;;
3975;SDS011;2002;48.812;9.180;2022-09-11T10:45:23;1.70;;;1.60;;
3975;SDS011;2002;48.812;9.180;2022-09-11T10:47:49;1.60;;;1.50;;
3975;SDS011;2002;48.812;9.180;2022-09-11T10:55:44;3.43;;;1.80;;
3975;SDS011;2002;48.812;9.180;2022-09-11T10:58:17;1.87;;;1.77;;
3975;SDS011;2002;48.812;9.180;2022-09-11T11:00:45;2.00;;;1.70;;
3975;SDS011;2002;48.812;9.180;2022-09-11T11:03:17;1.80;;;1.70;;
3975;SDS011;2002;48.812;9.180;2022-09-11T11:06:06;1.73;;;1.63;;
3975;SDS011;2002;48.812;9.180;2022-09-11T11:09:02;1.53;;;1.43;;
3975;SDS011;2002;48.812;9.180;2022-09-11T11:11:48;1.83;;;1.73;;
3975;SDS011;2002;48.812;9.180;2022-09-11T11:17:21;1.60;;;1.50;;
3975;SDS011;2002;48.812;9.180;2022-09-11T11:32:14;1.60;;;1.50;;
3975;SDS011;2002;48.812;9.180;2022-09-11T11:37:10;1.83;;;1.73;;
3975;SDS011;2002;48.812;9.180;2022-09-11T11:42:25;1.70;;;1.60;;
3975;SDS011;2002;48.812;9.180;2022-09-11T11:45:00;1.70;;;1.60;;
3975;SDS011;2002;48.812;9.180;2022-09-11T11:47:34;2.23;;;2.03;;
3975;SDS011;2002;48.812;9.180;2022-09-11T11:50:08;2.07;;;1.90;;
3975;SDS011;2002;48.812;9.180;2022-09-11T11:58:28;1.60;;;1.50;;
3975;SDS011;2002;48.812;9.180;2022-09-11T12:00:59;3.10;;;2.00;;
3975;SDS011;2002;48.812;9.180;2022-09-11T12:03:33;1.70;;;1.60;;
3975;SDS011;2002;48.812;9.180;2022-09-11T12:06:04;1.90;;;1.80;;
3975;SDS011;2002;48.812;9.180;2022-09-11T12:08:31;2.00;;;1.77;;
3975;SDS011;2002;48.812;9.180;2022-09-11T12:11:04;1.93;;;1.83;;
3975;SDS011;2002;48.812;9.180;2022-09-11T12:13:35;1.93;;;1.83;;
3975;SDS011;2002;48.812;9.180;2022-09-11T12:16:19;2.50;;;2.30;;
3975;SDS011;2002;48.812;9.180;2022-09-11T12:19:25;1.67;;;1.57;;
3975;SDS011;2002;48.812;9.180;2022-09-11T12:24:17;1.80;;;1.70;;
3975;SDS011;2002;48.812;9.180;2022-09-11T12:26:45;1.80;;;1.70;;
3975;SDS011;2002;48.812;9.180;2022-09-11T12:34:15;1.90;;;1.80;;
3975;SDS011;2002;48.812;9.180;2022-09-11T12:36:52;1.90;;;1.80;;
3975;SDS011;2002;48.812;9.180;2022-09-11T12:42:11;1.97;;;1.80;;
3975;SDS011;2002;48.812;9.180;2022-09-11T12:47:23;1.70;;;1.60;;
3975;SDS011;2002;48.812;9.180;2022-09-11T12:52:52;2.20;;;2.10;;
3975;SDS011;2002;48.812;9.180;2022-09-11T12:55:40;2.17;;;2.07;;
3975;SDS011;2002;48.812;9.180;2022-09-11T13:00:46;2.00;;;1.90;;
3975;SDS011;2002;48.812;9.180;2022-09-11T13:03:24;1.93;;;1.83;;
3975;SDS011;2002;48.812;9.180;2022-09-11T13:06:00;1.83;;;1.73;;
3975;SDS011;2002;48.812;9.180;2022-09-11T13:08:35;2.33;;;2.13;;
3975;SDS011;2002;48.812;9.180;2022-09-11T13:11:33;2.33;;;2.23;;
3975;SDS011;2002;48.812;9.180;2022-09-11T13:14:38;2.33;;;2.17;;
3975;SDS011;2002;48.812;9.180;2022-09-11T13:17:02;2.03;;;1.93;;
3975;SDS011;2002;48.812;9.180;2022-09-11T13:19:36;2.00;;;1.90;;
3975;SDS011;2002;48.812;9.180;2022-09-11T13:22:22;1.70;;;1.60;;
3975;SDS011;2002;48.812;9.180;2022-09-11T13:25:11;1.70;;;1.60;;
3975;SDS011;2002;48.812;9.180;2022-09-11T13:27:40;2.47;;;2.27;;
3975;SDS011;2002;48.812;9.180;2022-09-11T13:30:25;1.80;;;1.70;;
3975;SDS011;2002;48.812;9.180;2022-09-11T13:35:32;2.10;;;2.00;;
3975;SDS011;2002;48.812;9.180;2022-09-11T13:38:01;1.80;;;1.70;;
3975;SDS011;2002;48.812;9.180;2022-09-11T13:40:32;1.70;;;1.60;;
3975;SDS011;2002;48.812;9.180;2022-09-11T13:43:05;2.00;;;1.90;;
3975;SDS011;2002;48.812;9.180;2022-09-11T13:45:31;2.10;;;2.00;;
3975;SDS011;2002;48.812;9.180;2022-09-11T13:47:57;2.10;;;2.00;;
3975;SDS011;2002;48.812;9.180;2022-09-11T13:50:23;1.90;;;1.80;;
3975;SDS011;2002;48.812;9.180;2022-09-11T13:52:50;2.13;;;2.03;;
3975;SDS011;2002;48.812;9.180;2022-09-11T13:55:18;2.60;;;2.10;;
3975;SDS011;2002;48.812;9.180;2022-09-11T14:03:16;2.03;;;1.90;;
3975;SDS011;2002;48.812;9.180;2022-09-11T14:05:52;2.00;;;1.90;;
3975;SDS011;2002;48.812;9.180;2022-09-11T14:10:50;2.03;;;1.93;;
3975;SDS011;2002;48.812;9.180;2022-09-11T14:13:32;1.90;;;1.80;;
3975;SDS011;2002;48.812;9.180;2022-09-11T14:18:43;2.60;;;2.40;;
3975;SDS011;2002;48.812;9.180;2022-09-11T14:21:14;2.20;;;2.10;;
3975;SDS011;2002;48.812;9.180;2022-09-11T14:23:43;2.30;;;2.20;;
3975;SDS011;2002;48.812;9.180;2022-09-11T14:26:13;2.07;;;1.97;;
3975;SDS011;2002;48.812;9.180;2022-09-11T14:31:28;1.97;;;1.87;;
3975;SDS011;2002;48.812;9.180;2022-09-11T14:36:32;2.17;;;2.07;;
3975;SDS011;2002;48.812;9.180;2022-09-11T14:39:02;2.97;;;2.77;;
3975;SDS011;2002;48.812;9.180;2022-09-11T14:41:29;2.00;;;1.90;;
3975;SDS011;2002;48.812;9.180;2022-09-11T14:43:55;2.83;;;2.53;;
3975;SDS011;2002;48.812;9.180;2022-09-11T14:46:20;2.10;;;2.00;;
3975;SDS011;2002;48.812;9.180;2022-09-11T14:48:46;1.87;;;1.77;;
3975;SDS011;2002;48.812;9.180;2022-09-11T14:51:12;1.80;;;1.70;;
3975;SDS011;2002;48.812;9.180;2022-09-11T14:53:37;2.37;;;2.20;;
3975;SDS011;2002;48.812;9.180;2022-09-11T14:56:05;2.37;;;2.27;;
3975;SDS011;2002;48.812;9.180;2022-09-11T14:58:30;2.00;;;1.90;;
3975;SDS011;2002;48.812;9.180;2022-09-11T15:00:56;2.03;;;1.93;;
3975;SDS011;2002;48.812;9.180;2022-09-11T15:03:22;2.40;;;2.30;;
3975;SDS011;2002;48.812;9.180;2022-09-11T15:05:50;2.77;;;2.57;;
3975;SDS011;2002;48.812;9.180;2022-09-11T15:08:19;2.43;;;2.23;;
3975;SDS011;2002;48.812;9.180;2022-09-11T15:10:45;2.43;;;2.27;;
3975;SDS011;2002;48.812;9.180;2022-09-11T15:13:12;2.13;;;2.03;;
3975;SDS011;2002;48.812;9.180;2022-09-11T15:15:38;2.63;;;2.43;;
3975;SDS011;2002;48.812;9.180;2022-09-11T15:18:04;2.50;;;2.30;;
3975;SDS011;2002;48.812;9.180;2022-09-11T15:20:30;2.30;;;2.10;;
3975;SDS011;2002;48.812;9.180;2022-09-11T15:22:56;2.07;;;1.97;;
3975;SDS011;2002;48.812;9.180;2022-09-11T15:25:22;2.20;;;2.10;;
3975;SDS011;2002;48.812;9.180;2022-09-11T15:27:48;2.00;;;1.90;;
3975;SDS011;2002;48.812;9.180;2022-09-11T15:30:16;2.50;;;2.30;;
3975;SDS011;2002;48.812;9.180;2022-09-11T15:32:42;1.90;;;1.80;;
3975;SDS011;2002;48.812;9.180;2022-09-11T15:35:08;2.00;;;1.90;;
3975;SDS011;2002;48.812;9.180;2022-09-11T15:37:35;2.37;;;2.17;;
3975;SDS011;2002;48.812;9.180;2022-09-11T15:40:01;1.90;;;1.80;;
3975;SDS011;2002;48.812;9.180;2022-09-11T15:42:27;2.20;;;2.00;;
3975;SDS011;2002;48.812;9.180;2022-09-11T15:44:53;2.07;;;1.97;;
3975;SDS011;2002;48.812;9.180;2022-09-11T15:47:19;2.60;;;2.40;;
3975;SDS011;2002;48.812;9.180;2022-09-11T15:49:46;2.60;;;2.40;;
3975;SDS011;2002;48.812;9.180;2022-09-11T15:52:12;2.13;;;2.03;;
3975;SDS011;2002;48.812;9.180;2022-09-11T15:54:38;2.83;;;2.63;;
3975;SDS011;2002;48.812;9.180;2022-09-11T15:57:04;2.67;;;2.47;;
3975;SDS011;2002;48.812;9.180;2022-09-11T15:59:30;1.70;;;1.60;;
3975;SDS011;2002;48.812;9.180;2022-09-11T16:01:56;2.00;;;1.90;;
3975;SDS011;2002;48.812;9.180;2022-09-11T16:04:24;2.60;;;2.40;;
3975;SDS011;2002;48.812;9.180;2022-09-11T16:06:51;1.80;;;1.70;;
3975;SDS011;2002;48.812;9.180;2022-09-11T16:09:22;2.17;;;2.07;;
3975;SDS011;2002;48.812;9.180;2022-09-11T16:11:49;2.40;;;2.20;;
3975;SDS011;2002;48.812;9.180;2022-09-11T16:16:45;2.47;;;2.27;;
3975;SDS011;2002;48.812;9.180;2022-09-11T16:19:12;2.10;;;2.00;;
3975;SDS011;2002;48.812;9.180;2022-09-11T16:21:41;2.20;;;2.10;;
3975;SDS011;2002;48.812;9.180;2022-09-11T16:24:07;2.27;;;2.17;;
3975;SDS011;2002;48.812;9.180;2022-09-11T16:26:33;2.67;;;2.47;;
3975;SDS011;2002;48.812;9.180;2022-09-11T16:29:03;2.83;;;2.20;;
3975;SDS011;2002;48.812;9.180;2022-09-11T16:31:30;2.40;;;2.30;;
3975;SDS011;2002;48.812;9.180;2022-09-11T16:33:55;2.43;;;2.23;;
3975;SDS011;2002;48.812;9.180;2022-09-11T16:36:21;2.00;;;1.87;;
3975;SDS011;2002;48.812;9.180;2022-09-11T16:38:47;2.40;;;2.20;;
3975;SDS011;2002;48.812;9.180;2022-09-11T16:41:15;1.90;;;1.80;;
3975;SDS011;2002;48.812;9.180;2022-09-11T16:43:44;2.20;;;2.10;;
3975;SDS011;2002;48.812;9.180;2022-09-11T16:46:15;2.00;;;1.90;;
3975;SDS011;2002;48.812;9.180;2022-09-11T16:48:43;2.17;;;2.07;;
3975;SDS011;2002;48.812;9.180;2022-09-11T16:51:09;2.50;;;2.37;;
3975;SDS011;2002;48.812;9.180;2022-09-11T16:53:36;2.33;;;2.13;;
3975;SDS011;2002;48.812;9.180;2022-09-11T16:56:02;2.30;;;2.10;;
3975;SDS011;2002;48.812;9.180;2022-09-11T16:58:32;2.43;;;2.23;;
3975;SDS011;2002;48.812;9.180;2022-09-11T17:00:58;2.70;;;2.50;;
3975;SDS011;2002;48.812;9.180;2022-09-11T17:03:31;2.07;;;1.97;;
3975;SDS011;2002;48.812;9.180;2022-09-11T17:05:57;2.07;;;1.93;;
3975;SDS011;2002;48.812;9.180;2022-09-11T17:08:23;2.33;;;2.20;;
3975;SDS011;2002;48.812;9.180;2022-09-11T17:10:52;1.97;;;1.87;;
3975;SDS011;2002;48.812;9.180;2022-09-11T17:13:20;2.00;;;1.90;;
3975;SDS011;2002;48.812;9.180;2022-09-11T17:15:46;1.83;;;1.73;;
3975;SDS011;2002;48.812;9.180;2022-09-11T17:18:13;2.00;;;1.70;;
3975;SDS011;2002;48.812;9.180;2022-09-11T17:20:39;2.53;;;2.43;;
3975;SDS011;2002;48.812;9.180;2022-09-11T17:23:05;2.43;;;2.30;;
3975;SDS011;2002;48.812;9.180;2022-09-11T17:25:32;2.33;;;2.20;;
3975;SDS011;2002;48.812;9.180;2022-09-11T17:28:02;2.07;;;1.97;;
3975;SDS011;2002;48.812;9.180;2022-09-11T17:30:29;2.83;;;2.63;;
3975;SDS011;2002;48.812;9.180;2022-09-11T17:32:55;1.93;;;1.83;;
3975;SDS011;2002;48.812;9.180;2022-09-11T17:35:21;2.70;;;2.50;;
3975;SDS011;2002;48.812;9.180;2022-09-11T17:37:47;2.73;;;2.53;;
3975;SDS011;2002;48.812;9.180;2022-09-11T17:40:13;1.97;;;1.87;;
3975;SDS011;2002;48.812;9.180;2022-09-11T17:42:39;2.73;;;2.57;;
3975;SDS011;2002;48.812;9.180;2022-09-11T17:45:05;2.17;;;2.07;;
3975;SDS011;2002;48.812;9.180;2022-09-11T17:47:31;2.23;;;2.13;;